createdAt,value
2017-04-22T00:00:48.122Z,55.30
2017-04-22T00:01:46.532Z,55.20
2017-04-22T00:02:44.785Z,55.10
2017-04-22T00:03:43.096Z,55.20
2017-04-22T00:04:41.524Z,55.30
2017-04-22T00:05:39.823Z,55.10
2017-04-22T00:06:38.206Z,55.00
2017-04-22T00:07:36.598Z,54.90
2017-04-22T00:08:35.670Z,55.90
2017-04-22T00:09:33.978Z,54.30
2017-04-22T00:10:32.420Z,54.70
2017-04-22T00:11:31.543Z,55.30
2017-04-22T00:12:29.953Z,54.80
2017-04-22T00:13:28.270Z,54.80
2017-04-22T00:14:26.782Z,54.80
2017-04-22T00:15:25.050Z,54.70
2017-04-22T00:16:23.517Z,54.70
2017-04-22T00:17:21.857Z,54.80
2017-04-22T00:18:20.825Z,54.60
2017-04-22T00:19:19.184Z,54.50
2017-04-22T00:20:18.949Z,54.60
2017-04-22T00:21:17.315Z,54.50
2017-04-22T00:22:15.763Z,54.40
2017-04-22T00:23:15.031Z,54.30
2017-04-22T00:24:13.320Z,54.30
2017-04-22T00:25:11.627Z,54.20
2017-04-22T00:26:10.582Z,54.10
2017-04-22T00:27:08.875Z,54.20
2017-04-22T00:28:07.143Z,54.30
2017-04-22T00:29:05.440Z,54.30
2017-04-22T00:30:04.257Z,55.00
2017-04-22T00:31:02.596Z,54.30
2017-04-22T00:32:00.904Z,54.30
2017-04-22T00:32:59.213Z,54.30
2017-04-22T00:33:58.218Z,54.50
2017-04-22T00:34:56.522Z,54.50
2017-04-22T00:35:55.458Z,54.60
2017-04-22T00:36:53.770Z,54.90
2017-04-22T00:37:52.288Z,54.20
2017-04-22T00:38:50.582Z,54.10
2017-04-22T00:39:48.897Z,54.10
2017-04-22T00:40:47.240Z,54.10
2017-04-22T00:41:45.877Z,54.80
2017-04-22T00:42:44.265Z,54.20
2017-04-22T00:43:42.559Z,54.30
2017-04-22T00:44:40.929Z,54.40
2017-04-22T00:45:39.224Z,54.30
2017-04-22T00:46:37.438Z,54.40
2017-04-22T00:47:35.702Z,54.50
2017-04-22T00:48:34.967Z,54.70
2017-04-22T00:49:33.268Z,54.90
2017-04-22T00:50:32.142Z,55.10
2017-04-22T00:51:30.456Z,55.40
2017-04-22T00:52:28.761Z,55.40
2017-04-22T00:53:27.032Z,55.90
2017-04-22T00:54:25.843Z,55.30
2017-04-22T00:55:24.131Z,55.30
2017-04-22T00:57:21.344Z,55.30
2017-04-22T00:58:19.620Z,55.80
2017-04-22T00:59:18.482Z,55.80
2017-04-22T01:00:16.811Z,55.80
2017-04-22T01:01:15.883Z,55.50
2017-04-22T01:02:16.291Z,55.80
2017-04-22T01:03:14.603Z,55.90
2017-04-22T01:04:12.974Z,56.00
2017-04-22T01:05:11.852Z,56.00
2017-04-22T01:06:10.143Z,55.90
2017-04-22T01:07:08.571Z,55.90
2017-04-22T01:08:07.783Z,56.00
2017-04-22T01:09:06.248Z,56.10
2017-04-22T01:10:04.697Z,56.10
2017-04-22T01:11:04.529Z,55.70
2017-04-22T01:12:02.609Z,55.30
2017-04-22T01:13:00.921Z,56.00
2017-04-22T01:13:59.320Z,56.20
2017-04-22T01:14:58.396Z,56.50
2017-04-22T01:15:57.615Z,56.20
2017-04-22T01:16:56.845Z,56.20
2017-04-22T01:17:55.273Z,56.10
2017-04-22T01:18:53.555Z,56.60
2017-04-22T01:19:51.864Z,56.20
2017-04-22T01:20:50.463Z,56.80
2017-04-22T01:21:48.947Z,57.20
2017-04-22T01:22:47.270Z,56.70
2017-04-22T01:23:46.204Z,56.70
2017-04-22T01:24:44.436Z,56.60
2017-04-22T01:25:43.443Z,56.80
2017-04-22T01:26:42.314Z,56.90
2017-04-22T01:27:41.090Z,56.90
2017-04-22T01:28:39.414Z,57.20
2017-04-22T01:29:38.267Z,57.20
2017-04-22T01:30:36.677Z,57.20
2017-04-22T01:31:35.043Z,57.10
2017-04-22T01:32:33.287Z,57.10
2017-04-22T01:33:31.532Z,57.30
2017-04-22T01:34:29.757Z,57.20
2017-04-22T01:35:28.927Z,57.50
2017-04-22T01:36:27.355Z,57.30
2017-04-22T01:37:25.715Z,57.20
2017-04-22T01:38:24.031Z,57.10
2017-04-22T01:39:22.331Z,57.10
2017-04-22T01:40:20.599Z,57.10
2017-04-22T01:41:18.853Z,56.90
2017-04-22T01:42:17.958Z,56.80
2017-04-22T01:43:16.261Z,56.60
2017-04-22T01:44:14.501Z,56.60
2017-04-22T01:45:13.449Z,56.80
2017-04-22T01:46:12.427Z,56.50
2017-04-22T01:47:11.416Z,56.80
2017-04-22T01:48:10.541Z,56.70
2017-04-22T01:49:09.558Z,56.70
2017-04-22T01:50:07.812Z,56.80
2017-04-22T01:51:06.035Z,56.90
2017-04-22T01:52:05.022Z,56.80
2017-04-22T01:53:03.843Z,56.70
2017-04-22T01:54:02.258Z,56.90
2017-04-22T01:55:01.311Z,56.90
2017-04-22T01:56:00.697Z,56.90
2017-04-22T01:56:59.002Z,57.00
2017-04-22T01:57:57.987Z,57.10
2017-04-22T01:58:57.145Z,57.10
2017-04-22T01:59:56.093Z,57.10
2017-04-22T02:00:54.435Z,57.30
2017-04-22T02:01:52.879Z,57.60
2017-04-22T02:02:51.121Z,57.30
2017-04-22T02:03:49.414Z,57.20
2017-04-22T02:04:50.018Z,57.10
2017-04-22T02:05:48.355Z,56.90
2017-04-22T02:06:48.301Z,56.80
2017-04-22T02:07:46.657Z,56.90
2017-04-22T02:08:44.980Z,56.90
2017-04-22T02:09:43.315Z,56.90
2017-04-22T02:10:42.342Z,56.90
2017-04-22T02:11:40.740Z,57.10
2017-04-22T02:12:39.043Z,57.20
2017-04-22T02:13:38.074Z,57.10
2017-04-22T02:14:36.397Z,57.10
2017-04-22T02:15:35.429Z,57.10
2017-04-22T02:16:33.767Z,57.00
2017-04-22T02:17:32.107Z,57.00
2017-04-22T02:18:31.278Z,57.10
2017-04-22T02:19:29.507Z,56.90
2017-04-22T02:20:27.919Z,57.00
2017-04-22T02:21:27.023Z,57.10
2017-04-22T02:23:24.231Z,57.00
2017-04-22T02:24:22.586Z,57.10
2017-04-22T02:25:20.954Z,57.10
2017-04-22T02:26:19.314Z,57.20
2017-04-22T02:27:17.630Z,57.00
2017-04-22T02:28:15.955Z,57.10
2017-04-22T02:29:14.215Z,57.00
2017-04-22T02:30:12.606Z,57.10
2017-04-22T02:31:10.872Z,57.20
2017-04-22T02:32:09.163Z,57.20
2017-04-22T02:33:07.560Z,57.30
2017-04-22T02:34:06.530Z,57.50
2017-04-22T02:35:05.555Z,58.30
2017-04-22T02:36:03.965Z,57.60
2017-04-22T02:37:02.280Z,57.60
2017-04-22T02:38:00.537Z,57.40
2017-04-22T02:38:59.843Z,57.00
2017-04-22T02:39:58.133Z,57.60
2017-04-22T02:40:57.630Z,57.40
2017-04-22T02:41:56.307Z,57.50
2017-04-22T02:42:54.541Z,57.40
2017-04-22T02:43:52.840Z,57.30
2017-04-22T02:44:51.186Z,58.20
2017-04-22T02:45:49.489Z,57.70
2017-04-22T02:46:48.718Z,57.80
2017-04-22T02:47:46.628Z,57.50
2017-04-22T02:48:44.914Z,58.00
2017-04-22T02:49:43.485Z,57.90
2017-04-22T02:50:41.951Z,57.90
2017-04-22T02:51:40.215Z,57.90
2017-04-22T02:52:38.573Z,57.90
2017-04-22T02:53:37.421Z,57.80
2017-04-22T02:54:35.698Z,57.90
2017-04-22T02:55:33.942Z,58.20
2017-04-22T02:56:32.241Z,58.20
2017-04-22T02:57:30.513Z,58.00
2017-04-22T02:58:28.892Z,57.70
2017-04-22T02:59:27.319Z,58.00
2017-04-22T03:00:26.135Z,57.90
2017-04-22T03:01:24.588Z,57.80
2017-04-22T03:02:23.443Z,57.60
2017-04-22T03:03:21.718Z,57.80
2017-04-22T03:04:20.012Z,57.50
2017-04-22T03:05:18.328Z,57.50
2017-04-22T03:06:18.051Z,57.60
2017-04-22T03:07:16.330Z,57.70
2017-04-22T03:08:14.577Z,57.90
2017-04-22T03:09:12.856Z,58.70
2017-04-22T03:10:11.219Z,58.00
2017-04-22T03:11:09.903Z,58.10
2017-04-22T03:12:08.304Z,58.20
2017-04-22T03:13:06.821Z,58.20
2017-04-22T03:14:05.511Z,58.30
2017-04-22T03:15:03.948Z,58.40
2017-04-22T03:16:03.274Z,58.40
2017-04-22T03:17:01.701Z,58.60
2017-04-22T03:17:59.945Z,58.70
2017-04-22T03:18:58.183Z,58.70
2017-04-22T03:19:56.454Z,58.70
2017-04-22T03:20:54.722Z,58.70
2017-04-22T03:21:53.081Z,58.80
2017-04-22T03:22:52.027Z,58.70
2017-04-22T03:23:51.039Z,58.70
2017-04-22T03:24:49.360Z,58.70
2017-04-22T03:25:47.720Z,58.70
2017-04-22T03:26:46.714Z,58.60
2017-04-22T03:27:44.971Z,58.70
2017-04-22T03:28:43.247Z,58.60
2017-04-22T03:29:42.067Z,58.60
2017-04-22T03:30:40.771Z,58.70
2017-04-22T03:31:39.196Z,58.60
2017-04-22T03:32:38.239Z,58.70
2017-04-22T03:33:36.503Z,58.60
2017-04-22T03:34:34.864Z,58.70
2017-04-22T03:35:33.127Z,58.60
2017-04-22T03:36:31.386Z,58.70
2017-04-22T03:37:30.286Z,58.70
2017-04-22T03:38:29.511Z,58.90
2017-04-22T03:39:28.708Z,58.70
2017-04-22T03:40:27.749Z,58.70
2017-04-22T03:41:26.171Z,58.60
2017-04-22T03:42:24.570Z,58.70
2017-04-22T03:43:22.814Z,58.60
2017-04-22T03:44:21.050Z,58.70
2017-04-22T03:45:19.307Z,58.70
2017-04-22T03:46:17.570Z,59.10
2017-04-22T03:47:15.812Z,58.60
2017-04-22T03:48:14.050Z,58.80
2017-04-22T03:49:12.309Z,59.00
2017-04-22T03:50:10.614Z,59.60
2017-04-22T03:51:08.962Z,59.20
2017-04-22T03:52:07.327Z,59.20
2017-04-22T03:53:05.785Z,59.30
2017-04-22T03:54:04.133Z,59.20
2017-04-22T03:55:03.291Z,59.50
2017-04-22T03:56:01.529Z,59.20
2017-04-22T03:56:59.918Z,58.90
2017-04-22T03:57:58.773Z,59.30
2017-04-22T03:58:57.032Z,59.20
2017-04-22T03:59:55.511Z,59.30
2017-04-22T04:00:53.852Z,59.20
2017-04-22T04:01:52.858Z,59.30
2017-04-22T04:02:51.122Z,59.40
2017-04-22T04:03:50.015Z,59.50
2017-04-22T04:04:48.878Z,59.50
2017-04-22T04:05:47.333Z,59.50
2017-04-22T04:06:45.613Z,59.80
2017-04-22T04:07:44.017Z,59.60
2017-04-22T04:08:42.287Z,59.50
2017-04-22T04:09:41.295Z,59.70
2017-04-22T04:10:39.649Z,59.80
2017-04-22T04:11:37.858Z,59.80
2017-04-22T04:12:36.135Z,59.40
2017-04-22T04:13:34.403Z,59.70
2017-04-22T04:14:32.720Z,59.80
2017-04-22T04:15:31.054Z,59.90
2017-04-22T04:16:29.579Z,59.70
2017-04-22T04:17:28.631Z,59.70
2017-04-22T04:18:26.936Z,59.60
2017-04-22T04:19:25.950Z,59.70
2017-04-22T04:20:24.359Z,59.80
2017-04-22T04:21:22.631Z,59.70
2017-04-22T04:22:21.108Z,59.70
2017-04-22T04:23:19.413Z,59.70
2017-04-22T04:24:17.723Z,59.80
2017-04-22T04:25:16.651Z,59.80
2017-04-22T04:26:15.957Z,59.50
2017-04-22T04:27:14.341Z,59.30
2017-04-22T04:28:13.326Z,59.80
2017-04-22T04:29:12.268Z,59.70
2017-04-22T04:30:11.275Z,59.90
2017-04-22T04:31:09.511Z,60.50
2017-04-22T04:32:08.519Z,60.10
2017-04-22T04:33:06.855Z,59.80
2017-04-22T04:34:05.156Z,59.70
2017-04-22T04:35:04.100Z,59.70
2017-04-22T04:37:01.176Z,60.50
2017-04-22T04:37:59.454Z,59.80
2017-04-22T04:38:58.366Z,60.50
2017-04-22T04:39:56.616Z,59.80
2017-04-22T04:40:54.923Z,59.70
2017-04-22T04:41:53.178Z,59.80
2017-04-22T04:42:51.403Z,59.60
2017-04-22T04:43:50.391Z,59.80
2017-04-22T04:44:48.680Z,59.70
2017-04-22T04:45:46.959Z,59.70
2017-04-22T04:46:45.232Z,59.60
2017-04-22T04:47:43.525Z,59.60
2017-04-22T04:48:42.601Z,59.30
2017-04-22T04:49:41.006Z,59.70
2017-04-22T04:50:39.310Z,59.70
2017-04-22T04:51:38.988Z,59.70
2017-04-22T04:52:37.234Z,59.80
2017-04-22T04:53:36.737Z,59.80
2017-04-22T04:54:35.911Z,59.60
2017-04-22T04:55:34.170Z,59.40
2017-04-22T04:56:33.207Z,59.60
2017-04-22T04:57:31.503Z,59.80
2017-04-22T04:58:30.518Z,59.80
2017-04-22T04:59:29.312Z,59.70
2017-04-22T05:00:27.583Z,59.60
2017-04-22T05:01:25.913Z,59.70
2017-04-22T05:02:25.034Z,59.60
2017-04-22T05:03:23.392Z,59.70
2017-04-22T05:04:21.725Z,59.70
2017-04-22T05:05:20.881Z,59.80
2017-04-22T05:06:19.362Z,59.60
2017-04-22T05:07:17.631Z,59.90
2017-04-22T05:08:15.884Z,59.80
2017-04-22T05:09:14.282Z,59.70
2017-04-22T05:10:12.670Z,59.60
2017-04-22T05:11:12.167Z,59.60
2017-04-22T05:12:11.170Z,59.70
2017-04-22T05:13:09.405Z,59.80
2017-04-22T05:23:58.396Z,59.70
2017-04-22T05:24:56.662Z,59.70
2017-04-22T05:25:54.961Z,59.60
2017-04-22T05:26:56.137Z,59.50
2017-04-22T05:27:54.959Z,59.60
2017-04-22T05:28:53.002Z,59.10
2017-04-22T05:29:51.269Z,59.60
2017-04-22T05:30:49.924Z,59.70
2017-04-22T05:31:48.212Z,59.70
2017-04-22T05:32:46.587Z,59.70
2017-04-22T05:33:45.072Z,59.70
2017-04-22T05:34:44.117Z,59.70
2017-04-22T05:35:42.457Z,59.50
2017-04-22T05:36:41.052Z,59.50
2017-04-22T05:37:39.465Z,59.60
2017-04-22T05:38:38.547Z,59.50
2017-04-22T05:39:36.830Z,59.50
2017-04-22T05:40:36.742Z,59.20
2017-04-22T05:41:35.813Z,59.50
2017-04-22T05:42:34.441Z,59.50
2017-04-22T05:43:32.966Z,59.30
2017-04-22T05:44:32.510Z,59.50
2017-04-22T05:45:30.862Z,59.50
2017-04-22T05:46:30.610Z,59.60
2017-04-22T05:47:32.040Z,59.40
2017-04-22T05:48:32.232Z,59.30
2017-04-22T05:49:31.009Z,59.40
2017-04-22T05:50:29.644Z,59.20
2017-04-22T05:51:28.054Z,59.30
2017-04-22T05:52:26.332Z,58.90
2017-04-22T05:53:24.939Z,59.00
2017-04-22T05:54:24.652Z,59.40
2017-04-22T05:55:23.691Z,59.70
2017-04-22T05:56:24.852Z,59.00
2017-04-22T05:57:24.194Z,59.00
2017-04-22T05:58:23.507Z,59.00
2017-04-22T05:59:22.306Z,59.00
2017-04-22T06:00:21.632Z,59.00
2017-04-22T06:01:23.334Z,59.00
2017-04-22T06:03:22.021Z,59.50
2017-04-22T06:04:21.175Z,58.80
2017-04-22T06:05:19.596Z,58.70
2017-04-22T06:06:17.948Z,58.50
2017-04-22T06:07:16.223Z,58.40
2017-04-22T06:08:14.493Z,58.40
2017-04-22T06:09:14.180Z,58.20
2017-04-22T06:10:13.118Z,58.10
2017-04-22T06:11:12.027Z,58.20
2017-04-22T06:12:10.311Z,58.20
2017-04-22T06:13:08.675Z,58.10
2017-04-22T06:14:08.070Z,58.40
2017-04-22T06:15:07.626Z,58.20
2017-04-22T06:16:07.490Z,58.20
2017-04-22T06:17:07.353Z,58.40
2017-04-22T06:18:05.648Z,58.20
2017-04-22T06:19:04.453Z,58.20
2017-04-22T06:20:03.623Z,58.50
2017-04-22T06:21:03.673Z,58.50
2017-04-22T06:22:01.985Z,58.50
2017-04-22T06:23:00.246Z,58.50
2017-04-22T06:23:59.845Z,58.40
2017-04-22T06:24:58.900Z,58.50
2017-04-22T06:25:57.203Z,58.40
2017-04-22T06:26:55.677Z,58.50
2017-04-22T06:27:53.926Z,58.20
2017-04-22T06:28:52.174Z,58.00
2017-04-22T06:29:50.479Z,57.90
2017-04-22T06:30:48.710Z,57.80
2017-04-22T06:31:47.478Z,57.70
2017-04-22T06:32:45.993Z,57.80
2017-04-22T06:33:45.020Z,57.70
2017-04-22T06:34:43.650Z,57.60
2017-04-22T06:35:41.910Z,57.40
2017-04-22T06:36:40.210Z,57.40
2017-04-22T06:37:39.367Z,57.10
2017-04-22T06:38:37.629Z,56.90
2017-04-22T06:39:35.878Z,56.80
2017-04-22T06:40:34.482Z,56.60
2017-04-22T06:41:36.218Z,56.30
2017-04-22T06:42:38.536Z,56.50
2017-04-22T06:43:38.572Z,55.50
2017-04-22T06:44:39.382Z,55.20
2017-04-22T06:45:39.352Z,56.40
2017-04-22T06:46:37.632Z,54.50
2017-04-22T06:47:35.872Z,54.40
2017-04-22T06:48:34.302Z,54.60
2017-04-22T06:49:32.921Z,54.90
2017-04-22T06:50:31.260Z,54.80
2017-04-22T06:51:30.954Z,54.80
2017-04-22T06:52:29.242Z,54.90
2017-04-22T06:53:27.878Z,54.80
2017-04-22T06:54:26.179Z,54.70
2017-04-22T06:55:30.633Z,54.50
2017-04-22T06:56:35.488Z,54.50
2017-04-22T06:57:35.923Z,55.10
2017-04-22T06:58:34.708Z,54.50
2017-04-22T06:59:36.270Z,54.50
2017-04-22T07:00:36.344Z,54.50
2017-04-22T07:01:35.067Z,54.60
2017-04-22T07:02:42.109Z,54.90
2017-04-22T07:03:40.965Z,55.00
2017-04-22T07:04:41.938Z,55.50
2017-04-22T07:05:42.192Z,55.50
2017-04-22T07:06:41.087Z,55.80
2017-04-22T07:07:43.685Z,56.20
2017-04-22T07:08:43.349Z,56.40
2017-04-22T07:09:42.596Z,56.30
2017-04-22T07:10:42.562Z,56.20
2017-04-22T07:11:42.291Z,55.90
2017-04-22T07:12:43.879Z,55.90
2017-04-22T07:13:43.828Z,55.80
2017-04-22T07:14:44.153Z,55.80
2017-04-22T07:15:43.969Z,55.80
2017-04-22T07:16:44.122Z,55.90
2017-04-22T07:17:42.916Z,56.00
2017-04-22T07:18:46.877Z,56.10
2017-04-22T07:19:46.723Z,56.20
2017-04-22T07:20:48.427Z,56.10
2017-04-22T07:21:48.252Z,55.90
2017-04-22T07:22:53.430Z,55.90
2017-04-22T07:23:53.224Z,55.90
2017-04-22T07:24:55.901Z,55.60
2017-04-22T07:25:56.001Z,55.60
2017-04-22T07:26:58.292Z,55.70
2017-04-22T07:27:58.133Z,55.80
2017-04-22T07:28:59.547Z,56.40
2017-04-22T07:29:58.180Z,56.00
2017-04-22T07:30:58.416Z,55.90
2017-04-22T07:31:57.469Z,56.00
2017-04-22T07:32:55.975Z,55.90
2017-04-22T07:34:02.845Z,55.70
2017-04-22T07:35:08.332Z,55.70
2017-04-22T07:36:12.663Z,55.90
2017-04-22T07:37:13.525Z,56.00
2017-04-22T07:38:16.856Z,56.40
2017-04-22T07:39:20.121Z,56.40
2017-04-22T07:40:22.165Z,56.30
2017-04-22T07:41:21.699Z,56.70
2017-04-22T07:42:19.993Z,57.20
2017-04-22T07:43:19.042Z,57.20
2017-04-22T07:44:17.606Z,57.50
2017-04-22T07:45:15.903Z,57.40
2017-04-22T07:46:14.827Z,57.60
2017-04-22T07:47:13.229Z,57.70
2017-04-22T07:48:11.684Z,57.80
2017-04-22T07:49:10.103Z,58.00
2017-04-22T07:50:09.800Z,58.10
2017-04-22T07:51:08.302Z,58.10
2017-04-22T07:52:06.826Z,58.20
2017-04-22T07:53:05.418Z,58.40
2017-04-22T07:54:03.806Z,58.40
2017-04-22T07:55:04.095Z,59.00
2017-04-22T07:56:02.426Z,58.60
2017-04-22T07:57:00.852Z,58.70
2017-04-22T07:57:59.918Z,59.00
2017-04-22T07:58:59.010Z,59.00
2017-04-22T07:59:57.389Z,59.10
2017-04-22T08:00:56.666Z,59.10
2017-04-22T08:01:55.358Z,59.30
2017-04-22T08:02:54.408Z,59.30
2017-04-22T08:03:54.984Z,59.40
2017-04-22T08:04:53.252Z,59.40
2017-04-22T08:05:51.801Z,59.40
2017-04-22T08:06:50.855Z,60.30
2017-04-22T08:07:51.164Z,59.60
2017-04-22T08:08:50.355Z,59.60
2017-04-22T08:09:51.204Z,60.50
2017-04-22T08:10:52.789Z,59.60
2017-04-22T08:11:53.326Z,59.50
2017-04-22T08:12:53.016Z,59.50
2017-04-22T08:13:52.176Z,59.50
2017-04-22T08:14:51.551Z,59.50
2017-04-22T08:15:50.600Z,59.80
2017-04-22T08:16:48.978Z,60.00
2017-04-22T08:17:47.323Z,60.00
2017-04-22T08:18:46.800Z,60.20
2017-04-22T08:19:46.181Z,60.70
2017-04-22T08:20:46.468Z,60.20
2017-04-22T08:21:46.715Z,60.60
2017-04-22T08:22:46.126Z,60.80
2017-04-22T08:23:49.168Z,60.90
2017-04-22T08:24:48.786Z,60.80
2017-04-22T08:38:46.599Z,60.80
2017-04-22T08:39:45.427Z,54.20
2017-04-22T08:40:44.373Z,53.50
2017-04-22T08:41:44.144Z,51.30
2017-04-22T08:42:42.514Z,51.20
2017-04-22T08:43:40.812Z,50.60
2017-04-22T08:44:39.816Z,50.10
2017-04-22T08:45:38.146Z,50.10
2017-04-22T08:46:36.654Z,49.60
2017-04-22T08:47:34.951Z,49.60
2017-04-22T08:48:33.233Z,49.00
2017-04-22T08:49:31.585Z,48.20
2017-04-22T08:50:29.872Z,48.70
2017-04-22T08:51:28.500Z,48.30
2017-04-22T08:52:28.270Z,48.40
2017-04-22T08:53:27.806Z,48.40
2017-04-22T08:54:28.513Z,48.30
2017-04-22T08:55:30.690Z,48.50
2017-04-22T08:56:31.542Z,48.20
2017-04-22T08:57:31.646Z,48.50
2017-04-22T08:58:30.895Z,48.50
2017-04-22T08:59:29.167Z,48.00
2017-04-22T09:00:27.577Z,48.20
2017-04-22T09:01:25.943Z,48.50
2017-04-22T09:02:24.306Z,48.40
2017-04-22T09:03:22.568Z,47.30
2017-04-22T09:04:20.909Z,47.10
2017-04-22T09:05:19.190Z,47.60
2017-04-22T09:06:17.543Z,47.30
2017-04-22T09:07:15.866Z,47.30
2017-04-22T09:08:14.276Z,47.20
2017-04-22T09:09:12.550Z,48.70
2017-04-22T09:10:10.867Z,48.40
2017-04-22T09:11:09.228Z,48.70
2017-04-22T09:12:07.591Z,48.10
2017-04-22T09:13:05.904Z,48.00
2017-04-22T09:14:04.939Z,48.40
2017-04-22T09:15:04.042Z,47.60
2017-04-22T09:16:02.387Z,47.60
2017-04-22T09:17:00.773Z,47.80
2017-04-22T09:17:59.018Z,48.10
2017-04-22T09:18:57.340Z,48.20
2017-04-22T09:19:55.608Z,47.60
2017-04-22T09:20:54.700Z,47.60
2017-04-22T09:21:53.045Z,47.90
2017-04-22T09:22:51.475Z,47.70
2017-04-22T09:23:51.068Z,48.10
2017-04-22T09:24:49.437Z,47.70
2017-04-22T09:25:47.916Z,47.20
2017-04-22T09:26:47.222Z,46.70
2017-04-22T09:27:45.592Z,46.60
2017-04-22T09:28:43.934Z,46.60
2017-04-22T09:29:42.302Z,46.70
2017-04-22T09:30:40.620Z,46.60
2017-04-22T09:31:38.998Z,46.60
2017-04-22T09:32:37.783Z,46.80
2017-04-22T09:33:37.174Z,47.10
2017-04-22T09:34:36.211Z,47.30
2017-04-22T09:35:34.554Z,47.10
2017-04-22T09:36:32.816Z,46.60
2017-04-22T09:37:31.120Z,47.70
2017-04-22T09:38:29.378Z,46.90
2017-04-22T09:39:28.462Z,46.80
2017-04-22T09:40:26.860Z,46.40
2017-04-22T09:41:25.138Z,46.20
2017-04-22T09:42:24.205Z,46.80
2017-04-22T09:43:22.636Z,46.10
2017-04-22T09:44:20.919Z,46.10
2017-04-22T09:45:19.894Z,46.00
2017-04-22T09:46:18.248Z,45.10
2017-04-22T09:47:16.565Z,44.70
2017-04-22T09:48:14.841Z,44.50
2017-04-22T09:49:14.514Z,44.70
2017-04-22T09:50:12.806Z,44.70
2017-04-22T09:51:11.149Z,44.70
2017-04-22T09:52:09.498Z,44.80
2017-04-22T09:53:07.803Z,44.70
2017-04-22T09:54:06.500Z,44.60
2017-04-22T09:55:05.730Z,44.60
2017-04-22T09:56:04.516Z,44.90
2017-04-22T09:57:03.940Z,45.00
2017-04-22T09:58:02.295Z,45.40
2017-04-22T09:59:00.572Z,45.60
2017-04-22T10:00:00.214Z,45.70
2017-04-22T10:00:58.551Z,45.60
2017-04-22T10:01:57.248Z,45.00
2017-04-22T10:02:56.283Z,45.00
2017-04-22T10:03:54.580Z,45.30
2017-04-22T10:04:52.936Z,46.00
2017-04-22T10:05:51.203Z,44.60
2017-04-22T10:06:49.483Z,45.20
2017-04-22T10:07:48.761Z,44.40
2017-04-22T10:08:47.111Z,44.30
2017-04-22T10:09:45.441Z,44.30
2017-04-22T10:10:43.792Z,44.20
2017-04-22T10:11:42.889Z,44.20
2017-04-22T10:12:41.239Z,44.20
2017-04-22T10:13:40.312Z,44.80
2017-04-22T10:14:39.388Z,44.50
2017-04-22T10:15:37.782Z,44.40
2017-04-22T10:16:36.115Z,44.50
2017-04-22T10:17:35.031Z,43.90
2017-04-22T10:18:34.296Z,43.90
2017-04-22T10:19:32.687Z,43.00
2017-04-22T10:20:32.229Z,43.00
2017-04-22T10:21:31.741Z,41.40
2017-04-22T10:22:30.481Z,41.70
2017-04-22T10:23:28.793Z,41.30
2017-04-22T10:24:27.224Z,40.30
2017-04-22T10:25:25.546Z,40.50
2017-04-22T10:26:25.147Z,39.40
2017-04-22T10:27:25.096Z,37.50
2017-04-22T10:28:23.405Z,38.00
2017-04-22T10:29:21.762Z,38.00
2017-04-22T10:30:20.140Z,38.30
2017-04-22T10:31:18.408Z,38.50
2017-04-22T10:32:17.131Z,38.90
2017-04-22T10:33:16.303Z,38.40
2017-04-22T10:34:15.346Z,38.00
2017-04-22T10:35:13.714Z,37.20
2017-04-22T10:36:12.108Z,37.80
2017-04-22T10:37:12.257Z,38.50
2017-04-22T10:38:10.602Z,38.60
2017-04-22T10:39:09.875Z,37.30
2017-04-22T10:40:08.262Z,37.80
2017-04-22T10:41:07.302Z,38.00
2017-04-22T10:42:06.303Z,37.60
2017-04-22T10:43:04.849Z,37.50
2017-04-22T10:44:03.928Z,35.60
2017-04-22T10:45:03.099Z,35.40
2017-04-22T10:46:02.980Z,35.30
2017-04-22T10:47:02.677Z,35.00
2017-04-22T10:48:02.319Z,34.60
2017-04-22T10:58:45.716Z,29.60
2017-04-22T10:59:43.974Z,29.80
2017-04-22T11:00:42.243Z,28.90
2017-04-22T11:01:40.532Z,29.10
2017-04-22T11:02:39.640Z,28.70
2017-04-22T11:03:37.967Z,27.30
2017-04-22T11:04:36.927Z,26.90
2017-04-22T11:05:35.460Z,25.60
2017-04-22T11:06:34.728Z,25.30
2017-04-22T11:07:33.698Z,24.50
2017-04-22T11:08:33.022Z,24.60
2017-04-22T11:09:31.722Z,25.10
2017-04-22T11:10:30.903Z,25.80
2017-04-22T11:11:29.992Z,25.50
2017-04-22T11:12:29.095Z,25.40
2017-04-22T11:13:27.535Z,25.80
2017-04-22T11:15:26.028Z,26.30
2017-04-22T11:16:25.256Z,26.30
2017-04-22T11:17:24.387Z,27.40
2017-04-22T11:18:23.854Z,27.00
2017-04-22T11:19:22.377Z,26.70
2017-04-22T11:20:20.843Z,26.30
2017-04-22T11:21:20.019Z,26.20
2017-04-22T11:22:19.082Z,26.30
2017-04-22T11:23:17.461Z,26.10
2017-04-22T11:24:16.754Z,25.50
2017-04-22T11:25:15.112Z,25.30
2017-04-22T11:26:13.848Z,25.00
2017-04-22T11:27:12.362Z,24.40
2017-04-22T11:28:10.759Z,23.60
2017-04-22T11:29:09.941Z,23.00
2017-04-22T11:30:09.005Z,24.20
2017-04-22T11:31:07.678Z,23.80
2017-04-22T11:32:06.949Z,23.40
2017-04-22T11:33:06.623Z,23.40
2017-04-22T11:34:06.584Z,22.80
2017-04-22T11:35:06.440Z,23.00
2017-04-22T11:36:04.994Z,23.20
2017-04-22T11:37:03.877Z,23.20
2017-04-22T11:38:02.371Z,24.10
2017-04-22T11:39:00.818Z,22.80
2017-04-22T11:39:59.104Z,23.10
2017-04-22T11:40:58.032Z,22.50
2017-04-22T11:41:56.370Z,22.70
2017-04-22T11:42:56.183Z,23.50
2017-04-22T11:43:54.715Z,24.40
2017-04-22T11:44:53.784Z,25.10
2017-04-22T11:45:55.034Z,25.50
2017-04-22T11:46:54.617Z,25.10
2017-04-22T11:47:55.024Z,25.20
2017-04-22T11:48:54.072Z,25.30
2017-04-22T11:49:52.371Z,25.30
2017-04-22T11:50:51.306Z,25.10
2017-04-22T11:51:49.660Z,25.30
2017-04-22T11:52:48.583Z,25.20
2017-04-22T11:53:46.924Z,25.40
2017-04-22T11:54:45.927Z,25.40
2017-04-22T11:55:44.373Z,25.40
2017-04-22T11:56:42.838Z,25.40
2017-04-22T11:57:41.195Z,24.90
2017-04-22T11:58:39.601Z,25.10
2017-04-22T11:59:38.007Z,24.00
2017-04-22T12:00:36.993Z,23.90
2017-04-22T12:01:36.150Z,24.30
2017-04-22T12:02:34.618Z,24.10
2017-04-22T12:03:34.006Z,24.50
2017-04-22T12:04:32.313Z,24.70
2017-04-22T12:05:31.404Z,25.40
2017-04-22T12:06:30.517Z,24.70
2017-04-22T12:07:28.779Z,24.60
2017-04-22T12:08:28.966Z,24.50
2017-04-22T12:09:28.006Z,24.80
2017-04-22T12:10:26.283Z,25.30
2017-04-22T12:11:25.216Z,24.90
2017-04-22T12:12:23.451Z,25.40
2017-04-22T12:13:22.089Z,25.40
2017-04-22T12:14:20.418Z,24.50
2017-04-22T12:15:18.995Z,23.60
2017-04-22T12:16:17.358Z,23.80
2017-04-22T12:17:16.671Z,24.10
2017-04-22T12:18:15.858Z,23.90
2017-04-22T12:19:14.209Z,25.60
2017-04-22T12:20:13.090Z,26.10
2017-04-22T12:21:11.552Z,26.50
2017-04-22T12:22:10.593Z,25.40
2017-04-22T12:23:08.923Z,26.20
2017-04-22T12:33:52.850Z,27.50
2017-04-22T12:34:51.216Z,28.20
2017-04-22T12:35:49.763Z,28.70
2017-04-22T12:36:48.862Z,29.30
2017-04-22T12:37:47.246Z,29.70
2017-04-22T12:38:45.676Z,30.00
2017-04-22T12:39:44.710Z,30.00
2017-04-22T12:40:43.002Z,30.40
2017-04-22T12:41:41.313Z,31.10
2017-04-22T12:42:41.334Z,31.80
2017-04-22T12:43:39.619Z,32.50
2017-04-22T12:44:37.890Z,33.50
2017-04-22T12:45:36.198Z,33.90
2017-04-22T12:46:35.502Z,34.40
2017-04-22T12:47:33.751Z,34.90
2017-04-22T12:48:32.829Z,34.70
2017-04-22T12:49:31.159Z,34.60
2017-04-22T12:50:31.448Z,35.10
2017-04-22T12:51:30.336Z,35.70
2017-04-22T12:52:29.321Z,36.10
2017-04-22T12:53:29.272Z,36.20
2017-04-22T12:54:27.723Z,36.20
2017-04-22T12:55:26.043Z,36.40
2017-04-22T12:56:24.296Z,36.30
2017-04-22T12:57:23.677Z,36.30
2017-04-22T12:58:22.739Z,36.40
2017-04-22T12:59:21.090Z,36.50
2017-04-22T13:00:19.331Z,35.90
2017-04-22T13:01:17.712Z,34.90
2017-04-22T13:02:16.041Z,34.00
2017-04-22T13:03:15.068Z,34.30
2017-04-22T13:04:13.382Z,33.40
2017-04-22T13:05:13.440Z,31.60
2017-04-22T13:06:12.286Z,29.70
2017-04-22T13:07:11.872Z,28.90
2017-04-22T13:08:10.961Z,27.70
2017-04-22T13:09:10.021Z,27.20
2017-04-22T13:10:09.247Z,26.50
2017-04-22T13:11:07.580Z,25.20
2017-04-22T13:12:05.837Z,25.00
2017-04-22T13:13:05.168Z,24.40
2017-04-22T13:14:04.332Z,23.20
2017-04-22T13:15:03.103Z,23.10
2017-04-22T13:16:01.643Z,23.60
2017-04-22T13:17:00.568Z,22.70
2017-04-22T13:17:59.126Z,23.00
2017-04-22T13:18:57.997Z,23.20
2017-04-22T13:19:56.353Z,22.00
2017-04-22T13:20:54.733Z,21.80
2017-04-22T13:21:53.078Z,22.20
2017-04-22T13:22:51.778Z,23.30
2017-04-22T13:23:51.075Z,23.40
2017-04-22T13:24:50.272Z,22.40
2017-04-22T13:25:49.186Z,22.10